createdAt,value
2019-03-26T00:01:54.358Z,3.30
2019-03-26T00:04:25.174Z,3.40
2019-03-26T00:06:53.492Z,3.40
2019-03-26T00:09:21.906Z,3.50
2019-03-26T00:11:50.155Z,3.50
2019-03-26T00:14:18.414Z,3.60
2019-03-26T00:16:46.705Z,3.60
2019-03-26T00:19:14.901Z,3.60
2019-03-26T00:21:43.353Z,3.60
2019-03-26T00:24:11.661Z,3.60
2019-03-26T00:26:40.130Z,3.60
2019-03-26T00:29:08.373Z,3.60
2019-03-26T00:31:42.836Z,3.50
2019-03-26T00:34:19.156Z,3.50
2019-03-26T00:36:41.414Z,3.40
2019-03-26T00:39:09.716Z,3.30
2019-03-26T00:41:38.040Z,3.20
2019-03-26T00:44:06.343Z,3.10
2019-03-26T00:46:34.623Z,2.70
2019-03-26T00:49:03.012Z,3.00
2019-03-26T00:51:31.253Z,2.90
2019-03-26T00:53:59.639Z,2.70
2019-03-26T00:56:28.230Z,2.80
2019-03-26T00:58:56.508Z,2.70
2019-03-26T01:01:25.156Z,2.70
2019-03-26T01:03:54.939Z,2.60
2019-03-26T01:06:23.726Z,2.60
2019-03-26T01:08:52.041Z,2.50
2019-03-26T01:11:20.337Z,2.70
2019-03-26T01:13:48.859Z,2.50
2019-03-26T01:16:16.994Z,2.40
2019-03-26T01:18:45.239Z,2.40
2019-03-26T01:21:13.462Z,2.40
2019-03-26T01:23:41.858Z,2.40
2019-03-26T01:26:10.275Z,2.40
2019-03-26T01:28:38.673Z,2.40
2019-03-26T01:31:06.850Z,2.20
2019-03-26T01:33:35.130Z,2.30
2019-03-26T01:36:03.350Z,2.40
2019-03-26T01:38:36.649Z,2.50
2019-03-26T01:41:05.084Z,2.60
2019-03-26T01:43:33.348Z,2.60
2019-03-26T01:46:01.633Z,2.70
2019-03-26T01:48:30.159Z,2.70
2019-03-26T01:50:58.357Z,2.80
2019-03-26T01:53:26.657Z,2.80
2019-03-26T01:55:57.001Z,2.80
2019-03-26T01:58:25.357Z,2.80
2019-03-26T02:00:53.800Z,2.80
2019-03-26T02:03:22.111Z,2.80
2019-03-26T02:05:50.422Z,2.80
2019-03-26T02:08:18.659Z,2.80
2019-03-26T02:11:02.246Z,2.80
2019-03-26T02:13:31.990Z,2.90
2019-03-26T02:16:00.453Z,2.80
2019-03-26T02:18:28.578Z,2.80
2019-03-26T02:20:57.005Z,2.80
2019-03-26T02:23:25.357Z,2.80
2019-03-26T02:25:53.617Z,2.80
2019-03-26T02:28:21.897Z,2.70
2019-03-26T02:30:50.272Z,2.70
2019-03-26T02:33:18.601Z,2.70
2019-03-26T02:35:46.997Z,2.60
2019-03-26T02:38:15.183Z,2.60
2019-03-26T02:40:43.433Z,2.50
2019-03-26T02:43:11.691Z,2.50
2019-03-26T02:45:40.182Z,2.50
2019-03-26T02:48:08.665Z,2.60
2019-03-26T02:50:37.069Z,2.60
2019-03-26T02:53:08.974Z,2.50
2019-03-26T02:55:37.502Z,2.50
2019-03-26T02:58:05.968Z,2.50
2019-03-26T03:00:36.423Z,2.50
2019-03-26T03:03:04.675Z,2.60
2019-03-26T03:05:35.568Z,2.60
2019-03-26T03:08:03.376Z,2.60
2019-03-26T03:10:31.809Z,2.50
2019-03-26T03:13:00.117Z,2.50
2019-03-26T03:15:28.337Z,2.50
2019-03-26T03:17:56.585Z,2.40
2019-03-26T03:20:24.910Z,2.40
2019-03-26T03:22:53.652Z,2.40
2019-03-26T03:25:22.048Z,2.30
2019-03-26T03:27:50.354Z,2.20
2019-03-26T03:30:18.760Z,2.20
2019-03-26T03:32:47.147Z,2.10
2019-03-26T03:35:15.473Z,1.90
2019-03-26T03:37:43.726Z,2.00
2019-03-26T03:40:14.223Z,1.90
2019-03-26T03:42:42.617Z,1.80
2019-03-26T03:45:11.335Z,1.70
2019-03-26T03:47:43.588Z,1.50
2019-03-26T03:50:12.311Z,1.60
2019-03-26T03:52:41.605Z,1.50
2019-03-26T03:55:11.376Z,1.60
2019-03-26T03:57:39.786Z,1.50
2019-03-26T04:00:16.693Z,1.50
2019-03-26T04:02:45.051Z,1.40
2019-03-26T04:05:14.932Z,1.40
2019-03-26T04:07:43.227Z,1.50
2019-03-26T04:10:11.587Z,1.50
2019-03-26T04:12:40.094Z,1.60
2019-03-26T04:15:08.513Z,1.50
2019-03-26T04:17:36.760Z,1.60
2019-03-26T04:20:05.204Z,1.60
2019-03-26T04:22:33.509Z,1.70
2019-03-26T04:25:01.863Z,1.70
2019-03-26T04:27:30.346Z,1.80
2019-03-26T04:29:58.513Z,1.80
2019-03-26T04:32:26.830Z,1.90
2019-03-26T04:34:57.123Z,1.90
2019-03-26T04:37:25.436Z,1.90
2019-03-26T04:39:53.972Z,2.00
2019-03-26T04:42:22.370Z,2.00
2019-03-26T04:44:50.553Z,2.00
2019-03-26T04:47:18.923Z,2.00
2019-03-26T04:49:47.194Z,2.10
2019-03-26T04:52:15.596Z,2.10
2019-03-26T04:54:44.186Z,2.10
2019-03-26T04:57:13.593Z,2.10
2019-03-26T04:59:44.689Z,2.20
2019-03-26T05:02:12.983Z,2.20
2019-03-26T05:04:42.646Z,2.20
2019-03-26T05:07:10.874Z,2.30
2019-03-26T05:09:39.081Z,2.30
2019-03-26T05:12:07.547Z,2.40
2019-03-26T05:14:36.080Z,2.40
2019-03-26T05:17:04.394Z,2.50
2019-03-26T05:19:32.734Z,2.60
2019-03-26T05:22:00.949Z,2.60
2019-03-26T05:24:29.433Z,2.60
2019-03-26T05:26:57.803Z,2.70
2019-03-26T05:29:26.065Z,2.70
2019-03-26T05:31:54.541Z,2.70
2019-03-26T05:34:23.164Z,2.90
2019-03-26T05:36:51.972Z,2.70
2019-03-26T05:39:20.521Z,2.70
2019-03-26T05:41:49.020Z,2.80
2019-03-26T05:44:17.517Z,2.80
2019-03-26T05:46:47.551Z,2.50
2019-03-26T05:49:15.940Z,2.80
2019-03-26T05:51:44.250Z,2.80
2019-03-26T05:54:12.428Z,2.80
2019-03-26T05:56:40.826Z,2.80
2019-03-26T05:59:09.302Z,2.80
2019-03-26T06:01:37.735Z,2.80
2019-03-26T06:04:06.136Z,2.90
2019-03-26T06:06:34.861Z,2.90
2019-03-26T06:09:05.544Z,2.80
2019-03-26T06:11:33.913Z,3.10
2019-03-26T06:14:08.675Z,3.10
2019-03-26T06:16:38.632Z,3.10
2019-03-26T06:19:07.266Z,3.10
2019-03-26T06:21:35.617Z,3.10
2019-03-26T06:24:04.324Z,2.90
2019-03-26T06:26:33.057Z,2.90
2019-03-26T06:29:01.688Z,3.00
2019-03-26T06:31:33.070Z,3.00
2019-03-26T06:34:01.791Z,2.80
2019-03-26T06:36:31.738Z,2.80
2019-03-26T06:39:00.380Z,2.70
2019-03-26T06:41:28.848Z,2.70
2019-03-26T06:43:57.402Z,2.70
2019-03-26T06:46:25.859Z,2.70
2019-03-26T06:49:00.283Z,2.80
2019-03-26T06:51:25.957Z,2.90
2019-03-26T06:53:54.973Z,3.00
2019-03-26T06:56:23.672Z,2.80
2019-03-26T06:58:54.851Z,3.10
2019-03-26T07:01:23.535Z,3.00
2019-03-26T07:03:53.403Z,3.00
2019-03-26T07:06:23.103Z,3.00
2019-03-26T07:08:53.004Z,2.90
2019-03-26T07:11:22.591Z,3.00
2019-03-26T07:13:53.748Z,2.90
2019-03-26T07:16:38.115Z,3.00
2019-03-26T07:19:07.025Z,3.00
2019-03-26T07:21:49.180Z,3.00
2019-03-26T07:24:11.995Z,3.10
2019-03-26T07:27:02.157Z,3.10
2019-03-26T07:29:37.042Z,3.20
2019-03-26T07:32:07.065Z,3.40
2019-03-26T07:34:39.246Z,3.60
2019-03-26T07:37:09.380Z,3.70
2019-03-26T07:39:40.227Z,3.90
2019-03-26T07:42:09.333Z,3.90
2019-03-26T07:44:46.415Z,4.00
2019-03-26T07:47:21.015Z,4.20
2019-03-26T07:49:50.721Z,4.40
2019-03-26T07:52:19.717Z,4.60
2019-03-26T07:54:50.230Z,4.50
2019-03-26T07:57:19.698Z,4.40
2019-03-26T07:59:50.348Z,4.30
2019-03-26T08:02:21.107Z,4.20
2019-03-26T08:04:50.693Z,4.20
2019-03-26T08:07:19.465Z,4.10
2019-03-26T08:09:51.574Z,4.10
2019-03-26T08:12:27.002Z,3.90
2019-03-26T08:14:55.617Z,3.80
2019-03-26T08:17:24.703Z,3.70
2019-03-26T08:19:54.653Z,3.70
2019-03-26T08:22:29.014Z,3.80
2019-03-26T08:25:12.470Z,3.90
2019-03-26T08:27:41.590Z,4.00
2019-03-26T08:30:10.782Z,4.00
2019-03-26T08:32:39.521Z,3.90
2019-03-26T08:35:08.034Z,3.90
2019-03-26T08:37:36.555Z,3.90
2019-03-26T08:40:06.157Z,3.90
2019-03-26T08:42:34.530Z,3.90
2019-03-26T08:45:02.992Z,4.10
2019-03-26T08:47:35.143Z,4.10
2019-03-26T08:50:08.474Z,4.10
2019-03-26T08:52:38.733Z,4.10
2019-03-26T08:55:09.291Z,4.20
2019-03-26T08:57:42.000Z,4.30
2019-03-26T09:00:12.426Z,4.40
2019-03-26T09:02:42.165Z,4.50
2019-03-26T09:05:11.054Z,4.50
2019-03-26T09:07:43.663Z,4.50
2019-03-26T09:10:12.506Z,4.50
2019-03-26T09:12:40.970Z,4.50
2019-03-26T09:15:14.211Z,4.50
2019-03-26T09:17:44.340Z,4.50
2019-03-26T09:20:12.669Z,4.50
2019-03-26T09:22:43.983Z,4.50
2019-03-26T09:25:12.433Z,4.40
2019-03-26T09:27:41.104Z,4.40
2019-03-26T09:30:11.431Z,4.20
2019-03-26T09:32:40.101Z,4.50
2019-03-26T09:35:08.988Z,4.60
2019-03-26T09:37:38.419Z,4.60
2019-03-26T09:40:07.516Z,4.60
2019-03-26T09:42:36.276Z,4.60
2019-03-26T09:45:05.694Z,4.60
2019-03-26T09:47:34.280Z,4.60
2019-03-26T09:50:02.665Z,4.60
2019-03-26T09:52:30.977Z,4.70
2019-03-26T09:54:59.308Z,4.80
2019-03-26T09:57:27.676Z,4.80
2019-03-26T09:59:56.136Z,4.80
2019-03-26T10:02:24.640Z,4.80
2019-03-26T10:04:52.909Z,4.90
2019-03-26T10:07:22.025Z,4.90
2019-03-26T10:09:53.430Z,5.00
2019-03-26T10:12:22.026Z,4.90
2019-03-26T10:14:50.495Z,4.90
2019-03-26T10:17:20.035Z,5.00
2019-03-26T10:19:48.585Z,4.90
2019-03-26T10:22:19.905Z,5.00
2019-03-26T10:24:47.522Z,5.00
2019-03-26T10:27:19.045Z,5.00
2019-03-26T10:29:47.593Z,5.00
2019-03-26T10:32:17.530Z,5.00
2019-03-26T10:34:45.975Z,5.10
2019-03-26T10:37:14.446Z,5.10
2019-03-26T10:39:43.242Z,5.20
2019-03-26T10:42:21.206Z,5.20
2019-03-26T10:44:49.703Z,5.10
2019-03-26T10:47:18.295Z,5.10
2019-03-26T10:49:48.342Z,5.20
2019-03-26T10:52:16.690Z,5.30
2019-03-26T10:54:45.227Z,5.20
2019-03-26T10:57:16.693Z,5.10
2019-03-26T10:59:45.024Z,5.10
2019-03-26T11:02:15.985Z,5.30
2019-03-26T11:04:45.242Z,5.70
2019-03-26T11:07:13.741Z,6.00
2019-03-26T11:09:42.125Z,6.00
2019-03-26T11:12:10.854Z,6.20
2019-03-26T11:14:39.132Z,6.50
2019-03-26T11:17:07.433Z,6.70
2019-03-26T11:19:36.282Z,6.70
2019-03-26T11:22:06.703Z,6.80
2019-03-26T11:24:36.369Z,7.00
2019-03-26T11:27:04.637Z,6.90
2019-03-26T11:29:33.108Z,6.70
2019-03-26T11:32:01.469Z,6.60
2019-03-26T11:34:50.023Z,6.40
2019-03-26T11:37:18.509Z,6.50
2019-03-26T11:39:46.921Z,6.60
2019-03-26T11:42:15.277Z,6.60
2019-03-26T11:44:43.966Z,6.80
2019-03-26T11:47:16.679Z,7.10
2019-03-26T11:49:50.599Z,7.30
2019-03-26T11:52:18.940Z,7.50
2019-03-26T11:54:48.127Z,7.70
2019-03-26T11:57:16.898Z,7.70
2019-03-26T11:59:45.514Z,7.80
2019-03-26T12:02:15.031Z,7.90
2019-03-26T12:04:43.361Z,7.80
2019-03-26T12:07:12.206Z,7.70
2019-03-26T12:09:46.343Z,7.60
2019-03-26T12:12:10.862Z,7.40
2019-03-26T12:14:40.428Z,7.30
2019-03-26T12:17:09.334Z,7.40
2019-03-26T12:19:37.671Z,7.40
2019-03-26T12:22:07.305Z,7.30
2019-03-26T12:24:36.357Z,7.20
2019-03-26T12:27:04.995Z,7.20
2019-03-26T12:29:33.498Z,7.30
2019-03-26T12:32:01.913Z,7.40
2019-03-26T12:34:30.650Z,7.40
2019-03-26T12:36:59.110Z,7.20
2019-03-26T12:39:29.229Z,7.00
2019-03-26T12:41:57.711Z,6.90
2019-03-26T12:44:27.638Z,6.70
2019-03-26T12:46:58.324Z,6.80
2019-03-26T12:49:30.881Z,6.90
2019-03-26T12:51:59.143Z,6.70
2019-03-26T12:54:29.878Z,6.70
2019-03-26T12:56:58.105Z,6.70
2019-03-26T12:59:26.847Z,6.60
2019-03-26T13:01:55.433Z,6.70
2019-03-26T13:04:25.632Z,6.70
2019-03-26T13:06:54.025Z,6.60
2019-03-26T13:09:22.682Z,6.70
2019-03-26T13:11:51.083Z,6.80
2019-03-26T13:14:19.892Z,7.00
2019-03-26T13:16:48.105Z,7.30
2019-03-26T13:19:18.078Z,7.10
2019-03-26T13:21:46.657Z,7.20
2019-03-26T13:24:15.047Z,7.20
2019-03-26T13:26:43.225Z,7.00
2019-03-26T13:29:11.699Z,6.90
2019-03-26T13:31:41.462Z,6.90
2019-03-26T13:34:18.192Z,7.00
2019-03-26T13:36:46.627Z,6.90
2019-03-26T13:39:15.260Z,7.10
2019-03-26T13:41:43.651Z,7.10
2019-03-26T13:44:12.010Z,7.20
2019-03-26T13:46:40.406Z,7.10
2019-03-26T13:49:09.149Z,7.00
2019-03-26T13:51:37.471Z,6.90
2019-03-26T13:54:06.487Z,6.80
2019-03-26T13:56:35.111Z,6.80
2019-03-26T13:59:03.516Z,6.80
2019-03-26T14:01:34.253Z,6.80
2019-03-26T14:04:06.182Z,6.60
2019-03-26T14:06:34.482Z,6.70
2019-03-26T14:09:07.399Z,6.60
2019-03-26T14:11:36.355Z,6.60
2019-03-26T14:14:04.642Z,6.60
2019-03-26T14:16:33.015Z,6.60
2019-03-26T14:19:01.486Z,6.60
2019-03-26T14:21:29.747Z,6.60
2019-03-26T14:23:57.983Z,6.30
2019-03-26T14:26:29.443Z,6.10
2019-03-26T14:28:57.929Z,5.90
2019-03-26T14:31:26.556Z,6.00
2019-03-26T14:33:55.372Z,5.90
2019-03-26T14:36:23.730Z,5.90
2019-03-26T14:38:52.026Z,5.80
2019-03-26T14:41:20.821Z,5.80
2019-03-26T14:43:49.217Z,5.80
2019-03-26T14:46:17.518Z,5.80
2019-03-26T14:48:46.131Z,5.80
2019-03-26T14:51:14.738Z,6.00
2019-03-26T14:53:44.781Z,5.80
2019-03-26T14:56:13.222Z,5.70
2019-03-26T14:58:42.885Z,5.30
2019-03-26T15:01:11.214Z,5.00
2019-03-26T15:03:39.706Z,4.90
2019-03-26T15:06:08.019Z,4.80
2019-03-26T15:08:36.451Z,4.80
2019-03-26T15:11:25.466Z,3.60
2019-03-26T15:13:53.770Z,2.60
2019-03-26T15:16:32.276Z,2.00
2019-03-26T15:19:00.872Z,1.70
2019-03-26T15:22:19.483Z,1.40
2019-03-26T15:24:47.862Z,1.40
2019-03-26T15:27:16.290Z,1.30
2019-03-26T15:29:44.522Z,1.40
2019-03-26T15:32:12.777Z,1.50
2019-03-26T15:34:40.976Z,1.50
2019-03-26T15:37:09.399Z,1.80
2019-03-26T15:39:37.883Z,1.60
2019-03-26T15:42:06.324Z,1.70
2019-03-26T15:44:34.641Z,1.80
2019-03-26T15:47:03.300Z,1.90
2019-03-26T15:49:31.670Z,1.90
2019-03-26T15:51:59.974Z,2.00
2019-03-26T15:54:30.075Z,2.00
2019-03-26T15:56:58.480Z,2.10
2019-03-26T15:59:26.727Z,2.10
2019-03-26T16:01:54.987Z,2.10
2019-03-26T16:04:23.207Z,2.20
2019-03-26T16:06:51.674Z,2.30
2019-03-26T16:09:19.944Z,2.30
2019-03-26T16:11:48.060Z,2.20
2019-03-26T16:14:16.533Z,2.30
2019-03-26T16:16:44.944Z,2.30
2019-03-26T16:19:13.549Z,2.30
2019-03-26T16:21:42.388Z,2.30
2019-03-26T16:24:11.864Z,2.30
2019-03-26T16:26:43.243Z,2.30
2019-03-26T16:29:11.507Z,2.30
2019-03-26T16:31:39.762Z,2.30
2019-03-26T16:34:08.026Z,2.30
2019-03-26T16:36:36.300Z,2.30
2019-03-26T16:39:06.644Z,2.20
2019-03-26T16:41:48.116Z,2.20
2019-03-26T16:44:05.060Z,2.20
2019-03-26T16:46:36.321Z,2.20
2019-03-26T16:49:03.546Z,2.10
2019-03-26T16:51:32.041Z,2.10
2019-03-26T16:54:02.031Z,2.10
2019-03-26T16:56:30.416Z,2.00
2019-03-26T16:58:58.914Z,1.90
2019-03-26T17:01:27.233Z,1.90
2019-03-26T17:03:56.278Z,1.80
2019-03-26T17:06:24.520Z,1.70
2019-03-26T17:08:52.817Z,1.80
2019-03-26T17:11:21.394Z,1.80
2019-03-26T17:13:49.793Z,1.80
2019-03-26T17:16:19.928Z,1.80
2019-03-26T17:18:48.279Z,1.90
2019-03-26T17:21:18.351Z,1.90
2019-03-26T17:23:48.081Z,1.90
2019-03-26T17:26:19.460Z,1.90
2019-03-26T17:28:47.687Z,1.90
2019-03-26T17:31:16.006Z,1.90
2019-03-26T17:33:44.203Z,1.90
2019-03-26T17:36:12.524Z,1.90
2019-03-26T17:38:41.130Z,1.90
2019-03-26T17:41:09.347Z,1.90
2019-03-26T17:43:37.895Z,1.90
2019-03-26T17:46:07.765Z,1.90
2019-03-26T17:48:37.118Z,1.90
2019-03-26T17:51:05.630Z,2.10
2019-03-26T17:53:40.956Z,2.10
2019-03-26T17:56:09.218Z,2.10
2019-03-26T17:58:37.907Z,2.10
2019-03-26T18:01:08.297Z,2.10
2019-03-26T18:03:36.814Z,2.10
2019-03-26T18:06:07.476Z,2.20
2019-03-26T18:08:35.720Z,2.20
2019-03-26T18:11:04.227Z,2.30
2019-03-26T18:13:32.382Z,2.10
2019-03-26T18:16:00.884Z,2.30
2019-03-26T18:18:29.280Z,2.30
2019-03-26T18:21:01.349Z,2.30
2019-03-26T18:23:32.640Z,2.50
2019-03-26T18:26:01.056Z,2.30
2019-03-26T18:28:29.317Z,2.40
2019-03-26T18:31:02.306Z,2.30
2019-03-26T18:33:30.728Z,2.30
2019-03-26T18:35:59.060Z,2.20
2019-03-26T18:38:30.212Z,2.20
2019-03-26T18:40:58.540Z,2.30
2019-03-26T18:43:28.181Z,2.30
2019-03-26T18:45:56.697Z,2.10
2019-03-26T18:48:25.122Z,2.00
2019-03-26T18:50:53.850Z,1.90
2019-03-26T18:53:23.497Z,1.80
2019-03-26T18:55:51.825Z,1.60
2019-03-26T18:58:20.141Z,1.50
2019-03-26T19:00:48.523Z,1.50
2019-03-26T19:03:16.802Z,1.50
2019-03-26T19:05:45.151Z,1.50
2019-03-26T19:08:13.661Z,1.40
2019-03-26T19:10:42.150Z,1.60
2019-03-26T19:13:19.340Z,1.60
2019-03-26T19:15:40.699Z,1.60
2019-03-26T19:18:13.717Z,1.60
2019-03-26T19:20:43.571Z,1.60
2019-03-26T19:23:11.822Z,1.50
2019-03-26T19:25:40.220Z,1.50
2019-03-26T19:28:08.617Z,1.40
2019-03-26T19:30:55.419Z,1.50
2019-03-26T19:37:42.507Z,1.70
2019-03-26T19:40:13.952Z,1.80
2019-03-26T19:42:43.542Z,1.80
2019-03-26T19:45:12.358Z,1.70
2019-03-26T19:47:59.772Z,1.70
2019-03-26T19:50:28.592Z,1.80
2019-03-26T19:52:56.827Z,2.00
2019-03-26T19:55:33.367Z,2.00
2019-03-26T19:58:01.814Z,2.00
2019-03-26T20:00:30.026Z,1.90
2019-03-26T20:02:59.501Z,1.90
2019-03-26T20:05:48.468Z,1.80
2019-03-26T20:08:49.114Z,1.80
2019-03-26T20:14:47.993Z,1.80
2019-03-26T20:17:16.879Z,1.90
2019-03-26T20:19:49.022Z,2.00
2019-03-26T20:29:46.724Z,1.90
2019-03-26T20:32:31.410Z,1.90
2019-03-26T20:42:08.166Z,2.00
2019-03-26T20:44:36.384Z,2.00
2019-03-26T20:57:59.345Z,2.00
2019-03-26T21:07:57.628Z,1.90
2019-03-26T21:10:25.974Z,2.00
2019-03-26T21:13:57.094Z,2.00
2019-03-26T21:19:48.026Z,2.00
2019-03-26T21:25:58.722Z,2.00
2019-03-26T21:28:58.073Z,1.90
2019-03-26T21:35:29.168Z,1.90
2019-03-26T21:38:16.398Z,1.90
2019-03-26T21:40:47.659Z,1.80
2019-03-26T21:43:17.227Z,1.80
2019-03-26T21:45:45.982Z,1.70
2019-03-26T21:48:20.515Z,1.70
2019-03-26T21:51:01.367Z,1.70
2019-03-26T21:53:29.672Z,1.70
2019-03-26T22:00:13.960Z,1.70
2019-03-26T22:02:42.449Z,1.50
2019-03-26T22:08:26.245Z,1.40
2019-03-26T22:10:54.625Z,1.50
2019-03-26T22:13:22.981Z,1.50
2019-03-26T22:15:51.322Z,1.40
2019-03-26T22:18:19.644Z,1.40
2019-03-26T22:24:03.853Z,1.50
2019-03-26T22:26:54.680Z,1.50
2019-03-26T22:29:25.314Z,1.50
2019-03-26T22:31:53.526Z,1.60
2019-03-26T22:38:18.382Z,1.50
2019-03-26T22:44:40.301Z,1.50
2019-03-26T22:47:12.240Z,1.60
2019-03-26T22:53:56.643Z,1.50
2019-03-26T22:56:25.033Z,1.50
2019-03-26T22:58:53.325Z,1.50
2019-03-26T23:01:21.603Z,1.50
2019-03-26T23:03:49.873Z,1.50
2019-03-26T23:06:17.935Z,1.50
2019-03-26T23:08:46.676Z,1.40
2019-03-26T23:11:15.991Z,1.50
2019-03-26T23:13:44.175Z,1.40
2019-03-26T23:16:14.580Z,1.50
2019-03-26T23:18:42.854Z,1.50
2019-03-26T23:21:11.131Z,1.50
2019-03-26T23:23:39.605Z,1.50
2019-03-26T23:26:10.899Z,1.40
2019-03-26T23:28:39.123Z,1.50
2019-03-26T23:31:08.504Z,1.50
2019-03-26T23:33:36.761Z,1.50
2019-03-26T23:36:24.410Z,1.50
2019-03-26T23:38:59.521Z,1.50
2019-03-26T23:41:27.793Z,1.40
2019-03-26T23:43:58.884Z,1.30
2019-03-26T23:49:11.377Z,1.40
2019-03-26T23:51:49.055Z,1.50
2019-03-26T23:54:48.172Z,1.50
2019-03-26T23:57:16.553Z,1.50
2019-03-26T23:59:55.968Z,1.40
